CYQB

Quebec/Jean Lesage International Airport

Quebec, , Canada
METAR CYQB 170200Z 29003KT 250V320 15SM SKC M15/M19 A3009 RMK SLP199
Observed Flight Rules
Dec-17 @ 02:00 UTC (27 minutes ago) Visual Flight Rules
Wind Visibility Clouds
290° at 3 knots 15 miles
  • Clear skies
Temperatures Readings
Current -15°C / 5°F
Dewpoint -19°C / -2°F
Humidity 72%
Altimeter 30.09" Hg
Pressure 1019.9 hPa
Elevation 73
METAR CYQB 170200Z 29003KT 250V320 15SM SKC M15/M19 A3009 RMK SLP199
Observed Flight Rules
Dec-17 @ 02:00 UTC
(27 minutes ago)
VFR
Wind Visibility
290° at 3 knots 15 miles
Clouds
  • Clear skies
Temperature Dewpoint
-15°C / 5°F -19°C / -2°F
Humidity Altimeter Pressure
72% 30.09" Hg 1019.9 hPa